sensor_id;sensor_type;location;lat;lon;timestamp;P1;durP1;ratioP1;P2;durP2;ratioP2
31906;SDS011;18455;50.858;13.662;2023-11-19T00:00:52;4.30;;;3.90;;
31906;SDS011;18455;50.858;13.662;2023-11-19T00:05:52;5.83;;;3.67;;
31906;SDS011;18455;50.858;13.662;2023-11-19T00:10:53;4.23;;;3.20;;
31906;SDS011;18455;50.858;13.662;2023-11-19T00:15:53;4.07;;;3.00;;
31906;SDS011;18455;50.858;13.662;2023-11-19T00:20:53;4.57;;;3.57;;
31906;SDS011;18455;50.858;13.662;2023-11-19T00:25:53;5.17;;;3.23;;
31906;SDS011;18455;50.858;13.662;2023-11-19T00:30:54;4.97;;;3.50;;
31906;SDS011;18455;50.858;13.662;2023-11-19T00:35:54;3.50;;;3.20;;
31906;SDS011;18455;50.858;13.662;2023-11-19T00:40:55;3.80;;;3.23;;
31906;SDS011;18455;50.858;13.662;2023-11-19T00:45:56;6.37;;;3.30;;
31906;SDS011;18455;50.858;13.662;2023-11-19T00:50:56;3.57;;;2.63;;
31906;SDS011;18455;50.858;13.662;2023-11-19T00:55:56;3.27;;;2.97;;
31906;SDS011;18455;50.858;13.662;2023-11-19T01:00:57;3.47;;;2.43;;
31906;SDS011;18455;50.858;13.662;2023-11-19T01:05:57;2.67;;;2.40;;
31906;SDS011;18455;50.858;13.662;2023-11-19T01:10:59;2.70;;;2.50;;
31906;SDS011;18455;50.858;13.662;2023-11-19T01:16:00;1.80;;;1.70;;
31906;SDS011;18455;50.858;13.662;2023-11-19T01:21:02;3.33;;;2.17;;
31906;SDS011;18455;50.858;13.662;2023-11-19T01:26:03;2.33;;;1.97;;
31906;SDS011;18455;50.858;13.662;2023-11-19T01:31:05;3.33;;;2.17;;
31906;SDS011;18455;50.858;13.662;2023-11-19T01:36:08;2.83;;;1.97;;
31906;SDS011;18455;50.858;13.662;2023-11-19T01:41:09;3.60;;;2.53;;
31906;SDS011;18455;50.858;13.662;2023-11-19T01:46:09;2.40;;;2.20;;
31906;SDS011;18455;50.858;13.662;2023-11-19T01:51:12;4.07;;;3.30;;
31906;SDS011;18455;50.858;13.662;2023-11-19T01:56:16;3.63;;;2.60;;
31906;SDS011;18455;50.858;13.662;2023-11-19T02:01:16;3.08;;;2.67;;
31906;SDS011;18455;50.858;13.662;2023-11-19T02:06:17;4.50;;;3.27;;
31906;SDS011;18455;50.858;13.662;2023-11-19T02:11:19;3.70;;;3.27;;
31906;SDS011;18455;50.858;13.662;2023-11-19T02:16:19;5.67;;;3.40;;
31906;SDS011;18455;50.858;13.662;2023-11-19T02:21:19;3.70;;;3.13;;
31906;SDS011;18455;50.858;13.662;2023-11-19T02:26:25;2.80;;;2.47;;
31906;SDS011;18455;50.858;13.662;2023-11-19T02:31:27;3.00;;;2.70;;
31906;SDS011;18455;50.858;13.662;2023-11-19T02:36:27;2.55;;;2.35;;
31906;SDS011;18455;50.858;13.662;2023-11-19T02:41:28;3.30;;;3.00;;
31906;SDS011;18455;50.858;13.662;2023-11-19T02:46:28;3.40;;;2.43;;
31906;SDS011;18455;50.858;13.662;2023-11-19T02:51:28;3.77;;;3.03;;
31906;SDS011;18455;50.858;13.662;2023-11-19T02:56:30;4.13;;;2.87;;
31906;SDS011;18455;50.858;13.662;2023-11-19T03:01:35;2.63;;;2.43;;
31906;SDS011;18455;50.858;13.662;2023-11-19T03:06:36;2.87;;;2.43;;
31906;SDS011;18455;50.858;13.662;2023-11-19T03:11:36;5.93;;;2.03;;
31906;SDS011;18455;50.858;13.662;2023-11-19T03:16:36;1.70;;;1.60;;
31906;SDS011;18455;50.858;13.662;2023-11-19T03:21:37;4.35;;;3.10;;
31906;SDS011;18455;50.858;13.662;2023-11-19T03:26:37;2.67;;;2.47;;
31906;SDS011;18455;50.858;13.662;2023-11-19T03:31:41;3.70;;;3.40;;
31906;SDS011;18455;50.858;13.662;2023-11-19T03:36:42;3.37;;;2.90;;
31906;SDS011;18455;50.858;13.662;2023-11-19T03:41:45;3.27;;;2.07;;
31906;SDS011;18455;50.858;13.662;2023-11-19T03:46:46;3.00;;;2.70;;
31906;SDS011;18455;50.858;13.662;2023-11-19T03:51:47;3.97;;;3.30;;
31906;SDS011;18455;50.858;13.662;2023-11-19T03:56:47;2.43;;;2.23;;
31906;SDS011;18455;50.858;13.662;2023-11-19T04:01:47;2.00;;;1.87;;
31906;SDS011;18455;50.858;13.662;2023-11-19T04:06:48;2.50;;;2.10;;
31906;SDS011;18455;50.858;13.662;2023-11-19T04:11:48;3.40;;;2.57;;
31906;SDS011;18455;50.858;13.662;2023-11-19T04:16:48;2.57;;;2.10;;
31906;SDS011;18455;50.858;13.662;2023-11-19T04:21:49;2.23;;;2.03;;
31906;SDS011;18455;50.858;13.662;2023-11-19T04:26:49;2.20;;;2.00;;
31906;SDS011;18455;50.858;13.662;2023-11-19T04:31:49;4.40;;;3.10;;
31906;SDS011;18455;50.858;13.662;2023-11-19T04:36:49;3.50;;;2.80;;
31906;SDS011;18455;50.858;13.662;2023-11-19T04:41:50;2.80;;;2.50;;
31906;SDS011;18455;50.858;13.662;2023-11-19T04:46:51;2.97;;;2.63;;
31906;SDS011;18455;50.858;13.662;2023-11-19T04:51:51;3.97;;;3.00;;
31906;SDS011;18455;50.858;13.662;2023-11-19T04:56:52;3.37;;;2.73;;
31906;SDS011;18455;50.858;13.662;2023-11-19T05:01:52;4.80;;;3.77;;
31906;SDS011;18455;50.858;13.662;2023-11-19T05:06:52;6.00;;;3.97;;
31906;SDS011;18455;50.858;13.662;2023-11-19T05:11:53;4.67;;;3.97;;
31906;SDS011;18455;50.858;13.662;2023-11-19T05:16:53;4.57;;;4.17;;
31906;SDS011;18455;50.858;13.662;2023-11-19T05:21:54;4.30;;;3.37;;
31906;SDS011;18455;50.858;13.662;2023-11-19T05:26:54;3.87;;;3.47;;
31906;SDS011;18455;50.858;13.662;2023-11-19T05:31:54;3.20;;;2.50;;
31906;SDS011;18455;50.858;13.662;2023-11-19T05:36:55;3.20;;;2.90;;
31906;SDS011;18455;50.858;13.662;2023-11-19T05:41:55;2.47;;;2.27;;
31906;SDS011;18455;50.858;13.662;2023-11-19T05:46:55;2.93;;;2.53;;
31906;SDS011;18455;50.858;13.662;2023-11-19T05:51:56;2.43;;;2.23;;
31906;SDS011;18455;50.858;13.662;2023-11-19T05:56:56;2.67;;;2.30;;
31906;SDS011;18455;50.858;13.662;2023-11-19T06:01:57;1.83;;;1.73;;
31906;SDS011;18455;50.858;13.662;2023-11-19T06:06:57;2.60;;;2.20;;
31906;SDS011;18455;50.858;13.662;2023-11-19T06:11:58;2.67;;;1.90;;
31906;SDS011;18455;50.858;13.662;2023-11-19T06:16:58;4.63;;;1.50;;
31906;SDS011;18455;50.858;13.662;2023-11-19T06:21:58;1.33;;;1.23;;
31906;SDS011;18455;50.858;13.662;2023-11-19T06:26:58;4.90;;;1.30;;
31906;SDS011;18455;50.858;13.662;2023-11-19T06:31:59;1.50;;;1.40;;
31906;SDS011;18455;50.858;13.662;2023-11-19T06:36:59;1.25;;;1.15;;
31906;SDS011;18455;50.858;13.662;2023-11-19T06:41:59;1.50;;;1.17;;
31906;SDS011;18455;50.858;13.662;2023-11-19T06:47:00;1.40;;;1.30;;
31906;SDS011;18455;50.858;13.662;2023-11-19T06:52:00;1.10;;;1.10;;
31906;SDS011;18455;50.858;13.662;2023-11-19T06:57:00;0.90;;;0.90;;
31906;SDS011;18455;50.858;13.662;2023-11-19T07:02:01;0.90;;;0.90;;
31906;SDS011;18455;50.858;13.662;2023-11-19T07:07:01;1.10;;;1.10;;
31906;SDS011;18455;50.858;13.662;2023-11-19T07:12:01;1.30;;;1.20;;
31906;SDS011;18455;50.858;13.662;2023-11-19T07:17:04;0.90;;;0.90;;
31906;SDS011;18455;50.858;13.662;2023-11-19T07:22:05;2.20;;;1.77;;
31906;SDS011;18455;50.858;13.662;2023-11-19T07:27:06;16.17;;;7.03;;
31906;SDS011;18455;50.858;13.662;2023-11-19T07:32:06;5.93;;;2.90;;
31906;SDS011;18455;50.858;13.662;2023-11-19T07:37:08;2.20;;;1.67;;
31906;SDS011;18455;50.858;13.662;2023-11-19T07:42:08;25.07;;;12.23;;
31906;SDS011;18455;50.858;13.662;2023-11-19T07:47:09;9.00;;;4.23;;
31906;SDS011;18455;50.858;13.662;2023-11-19T07:52:10;6.53;;;3.70;;
31906;SDS011;18455;50.858;13.662;2023-11-19T07:57:10;11.77;;;7.40;;
31906;SDS011;18455;50.858;13.662;2023-11-19T08:02:10;4.10;;;3.00;;
31906;SDS011;18455;50.858;13.662;2023-11-19T08:07:11;13.00;;;6.53;;
31906;SDS011;18455;50.858;13.662;2023-11-19T08:12:11;11.23;;;5.70;;
31906;SDS011;18455;50.858;13.662;2023-11-19T08:17:14;5.50;;;2.93;;
31906;SDS011;18455;50.858;13.662;2023-11-19T08:22:14;2.23;;;1.93;;
31906;SDS011;18455;50.858;13.662;2023-11-19T08:27:14;5.67;;;2.90;;
31906;SDS011;18455;50.858;13.662;2023-11-19T08:32:14;2.40;;;0.90;;
31906;SDS011;18455;50.858;13.662;2023-11-19T08:37:15;1.43;;;1.33;;
31906;SDS011;18455;50.858;13.662;2023-11-19T08:42:15;0.80;;;0.80;;
31906;SDS011;18455;50.858;13.662;2023-11-19T08:47:18;4.30;;;1.20;;
31906;SDS011;18455;50.858;13.662;2023-11-19T08:52:18;2.33;;;1.60;;
31906;SDS011;18455;50.858;13.662;2023-11-19T08:57:18;1.20;;;0.90;;
31906;SDS011;18455;50.858;13.662;2023-11-19T09:02:19;3.90;;;1.10;;
31906;SDS011;18455;50.858;13.662;2023-11-19T09:07:19;1.53;;;0.90;;
31906;SDS011;18455;50.858;13.662;2023-11-19T09:12:21;4.63;;;1.50;;
31906;SDS011;18455;50.858;13.662;2023-11-19T09:17:21;3.13;;;1.03;;
31906;SDS011;18455;50.858;13.662;2023-11-19T09:22:22;4.43;;;1.10;;
31906;SDS011;18455;50.858;13.662;2023-11-19T09:27:22;3.40;;;1.10;;
31906;SDS011;18455;50.858;13.662;2023-11-19T09:32:22;3.07;;;1.27;;
31906;SDS011;18455;50.858;13.662;2023-11-19T09:37:23;6.77;;;1.40;;
31906;SDS011;18455;50.858;13.662;2023-11-19T09:42:23;1.97;;;1.17;;
31906;SDS011;18455;50.858;13.662;2023-11-19T09:47:24;3.20;;;1.10;;
31906;SDS011;18455;50.858;13.662;2023-11-19T09:52:25;3.87;;;1.20;;
31906;SDS011;18455;50.858;13.662;2023-11-19T09:57:25;1.87;;;0.90;;
31906;SDS011;18455;50.858;13.662;2023-11-19T10:02:26;2.67;;;1.23;;
31906;SDS011;18455;50.858;13.662;2023-11-19T10:07:29;4.67;;;1.57;;
31906;SDS011;18455;50.858;13.662;2023-11-19T10:12:29;3.97;;;1.23;;
31906;SDS011;18455;50.858;13.662;2023-11-19T10:17:33;2.87;;;1.30;;
31906;SDS011;18455;50.858;13.662;2023-11-19T10:22:36;4.23;;;1.33;;
31906;SDS011;18455;50.858;13.662;2023-11-19T10:27:36;4.20;;;2.80;;
31906;SDS011;18455;50.858;13.662;2023-11-19T10:32:37;7.10;;;2.13;;
31906;SDS011;18455;50.858;13.662;2023-11-19T10:37:37;1.50;;;1.20;;
31906;SDS011;18455;50.858;13.662;2023-11-19T10:42:37;3.83;;;0.90;;
31906;SDS011;18455;50.858;13.662;2023-11-19T10:47:38;3.03;;;1.30;;
31906;SDS011;18455;50.858;13.662;2023-11-19T10:52:38;2.90;;;1.80;;
31906;SDS011;18455;50.858;13.662;2023-11-19T10:57:39;4.53;;;2.73;;
31906;SDS011;18455;50.858;13.662;2023-11-19T11:02:42;2.57;;;0.97;;
31906;SDS011;18455;50.858;13.662;2023-11-19T11:07:44;4.93;;;1.80;;
31906;SDS011;18455;50.858;13.662;2023-11-19T11:12:44;5.50;;;1.50;;
31906;SDS011;18455;50.858;13.662;2023-11-19T11:17:45;4.63;;;2.07;;
31906;SDS011;18455;50.858;13.662;2023-11-19T11:22:50;3.23;;;1.63;;
31906;SDS011;18455;50.858;13.662;2023-11-19T11:33:05;8.53;;;2.07;;
31906;SDS011;18455;50.858;13.662;2023-11-19T11:38:07;7.53;;;2.20;;
31906;SDS011;18455;50.858;13.662;2023-11-19T11:43:43;10.90;;;3.00;;
31906;SDS011;18455;50.858;13.662;2023-11-19T11:48:28;16.00;;;2.33;;
31906;SDS011;18455;50.858;13.662;2023-11-19T11:53:31;4.90;;;1.27;;
31906;SDS011;18455;50.858;13.662;2023-11-19T11:58:35;10.70;;;2.20;;
31906;SDS011;18455;50.858;13.662;2023-11-19T12:03:37;14.27;;;2.87;;
31906;SDS011;18455;50.858;13.662;2023-11-19T12:08:37;10.43;;;2.77;;
31906;SDS011;18455;50.858;13.662;2023-11-19T12:14:12;6.80;;;2.47;;
31906;SDS011;18455;50.858;13.662;2023-11-19T12:19:06;9.30;;;2.97;;
31906;SDS011;18455;50.858;13.662;2023-11-19T12:24:08;10.38;;;2.95;;
31906;SDS011;18455;50.858;13.662;2023-11-19T12:29:08;8.15;;;2.30;;
31906;SDS011;18455;50.858;13.662;2023-11-19T12:34:09;7.43;;;2.42;;
31906;SDS011;18455;50.858;13.662;2023-11-19T12:39:11;7.13;;;1.90;;
31906;SDS011;18455;50.858;13.662;2023-11-19T12:44:13;10.25;;;2.15;;
31906;SDS011;18455;50.858;13.662;2023-11-19T12:49:13;7.70;;;2.10;;
31906;SDS011;18455;50.858;13.662;2023-11-19T12:54:13;7.88;;;2.38;;
31906;SDS011;18455;50.858;13.662;2023-11-19T12:59:14;12.48;;;2.90;;
31906;SDS011;18455;50.858;13.662;2023-11-19T13:04:17;8.15;;;2.13;;
31906;SDS011;18455;50.858;13.662;2023-11-19T13:09:21;6.82;;;1.80;;
31906;SDS011;18455;50.858;13.662;2023-11-19T13:14:22;8.52;;;2.33;;
31906;SDS011;18455;50.858;13.662;2023-11-19T13:19:23;8.60;;;2.50;;
31906;SDS011;18455;50.858;13.662;2023-11-19T13:24:24;10.57;;;2.70;;
31906;SDS011;18455;50.858;13.662;2023-11-19T13:29:24;12.53;;;2.30;;
31906;SDS011;18455;50.858;13.662;2023-11-19T13:34:24;15.80;;;2.53;;
31906;SDS011;18455;50.858;13.662;2023-11-19T13:39:25;14.73;;;4.00;;
31906;SDS011;18455;50.858;13.662;2023-11-19T13:44:25;11.83;;;4.30;;
31906;SDS011;18455;50.858;13.662;2023-11-19T13:49:25;12.30;;;2.77;;
31906;SDS011;18455;50.858;13.662;2023-11-19T13:54:26;15.45;;;2.80;;
31906;SDS011;18455;50.858;13.662;2023-11-19T13:59:26;13.83;;;2.87;;
31906;SDS011;18455;50.858;13.662;2023-11-19T14:04:27;6.33;;;2.50;;
31906;SDS011;18455;50.858;13.662;2023-11-19T14:09:27;14.77;;;2.97;;
31906;SDS011;18455;50.858;13.662;2023-11-19T14:14:29;12.93;;;3.45;;
31906;SDS011;18455;50.858;13.662;2023-11-19T14:19:29;12.67;;;2.30;;
31906;SDS011;18455;50.858;13.662;2023-11-19T14:24:29;12.83;;;4.80;;
31906;SDS011;18455;50.858;13.662;2023-11-19T14:29:29;11.17;;;3.20;;
31906;SDS011;18455;50.858;13.662;2023-11-19T14:34:30;10.07;;;3.10;;
31906;SDS011;18455;50.858;13.662;2023-11-19T14:39:30;12.93;;;5.27;;
31906;SDS011;18455;50.858;13.662;2023-11-19T14:44:31;14.10;;;2.40;;
31906;SDS011;18455;50.858;13.662;2023-11-19T14:49:31;14.07;;;3.00;;
31906;SDS011;18455;50.858;13.662;2023-11-19T14:54:32;8.30;;;2.60;;
31906;SDS011;18455;50.858;13.662;2023-11-19T14:59:32;13.47;;;2.80;;
31906;SDS011;18455;50.858;13.662;2023-11-19T15:04:33;10.77;;;2.30;;
31906;SDS011;18455;50.858;13.662;2023-11-19T15:09:34;24.20;;;7.43;;
31906;SDS011;18455;50.858;13.662;2023-11-19T15:14:36;13.03;;;3.47;;
31906;SDS011;18455;50.858;13.662;2023-11-19T15:19:36;13.20;;;3.70;;
31906;SDS011;18455;50.858;13.662;2023-11-19T15:24:37;17.47;;;3.63;;
31906;SDS011;18455;50.858;13.662;2023-11-19T15:29:39;11.77;;;2.87;;
31906;SDS011;18455;50.858;13.662;2023-11-19T15:34:39;11.70;;;2.60;;
31906;SDS011;18455;50.858;13.662;2023-11-19T15:39:41;15.67;;;4.20;;
31906;SDS011;18455;50.858;13.662;2023-11-19T15:44:41;18.33;;;2.87;;
31906;SDS011;18455;50.858;13.662;2023-11-19T15:49:42;9.20;;;2.85;;
31906;SDS011;18455;50.858;13.662;2023-11-19T15:54:42;12.87;;;2.80;;
31906;SDS011;18455;50.858;13.662;2023-11-19T15:59:42;11.93;;;2.33;;
31906;SDS011;18455;50.858;13.662;2023-11-19T16:04:43;10.47;;;2.70;;
31906;SDS011;18455;50.858;13.662;2023-11-19T16:09:47;11.97;;;2.50;;
31906;SDS011;18455;50.858;13.662;2023-11-19T16:14:48;12.27;;;2.33;;
31906;SDS011;18455;50.858;13.662;2023-11-19T16:19:48;15.20;;;3.37;;
31906;SDS011;18455;50.858;13.662;2023-11-19T16:24:49;6.73;;;2.90;;
31906;SDS011;18455;50.858;13.662;2023-11-19T16:29:49;10.60;;;2.40;;
31906;SDS011;18455;50.858;13.662;2023-11-19T16:34:50;19.33;;;5.83;;
31906;SDS011;18455;50.858;13.662;2023-11-19T16:39:51;42.67;;;15.20;;
31906;SDS011;18455;50.858;13.662;2023-11-19T16:44:51;11.13;;;4.50;;
31906;SDS011;18455;50.858;13.662;2023-11-19T16:49:52;23.07;;;7.90;;
31906;SDS011;18455;50.858;13.662;2023-11-19T16:54:54;13.97;;;4.53;;
31906;SDS011;18455;50.858;13.662;2023-11-19T16:59:54;25.70;;;8.17;;
31906;SDS011;18455;50.858;13.662;2023-11-19T17:04:56;13.27;;;4.17;;
31906;SDS011;18455;50.858;13.662;2023-11-19T17:09:56;20.13;;;6.97;;
31906;SDS011;18455;50.858;13.662;2023-11-19T17:14:57;22.03;;;8.17;;
31906;SDS011;18455;50.858;13.662;2023-11-19T17:20:04;24.27;;;11.90;;
31906;SDS011;18455;50.858;13.662;2023-11-19T17:25:05;13.13;;;3.77;;
31906;SDS011;18455;50.858;13.662;2023-11-19T17:30:06;9.27;;;2.40;;
31906;SDS011;18455;50.858;13.662;2023-11-19T17:35:06;17.57;;;3.50;;
31906;SDS011;18455;50.858;13.662;2023-11-19T17:40:07;11.27;;;3.40;;
31906;SDS011;18455;50.858;13.662;2023-11-19T17:45:09;12.07;;;2.87;;
31906;SDS011;18455;50.858;13.662;2023-11-19T17:50:10;13.47;;;3.20;;
31906;SDS011;18455;50.858;13.662;2023-11-19T17:55:10;10.53;;;3.43;;
31906;SDS011;18455;50.858;13.662;2023-11-19T18:00:13;11.43;;;2.93;;
31906;SDS011;18455;50.858;13.662;2023-11-19T18:05:14;10.53;;;2.57;;
31906;SDS011;18455;50.858;13.662;2023-11-19T18:10:15;13.00;;;2.33;;
31906;SDS011;18455;50.858;13.662;2023-11-19T18:15:17;9.57;;;2.10;;
31906;SDS011;18455;50.858;13.662;2023-11-19T18:20:18;11.17;;;3.80;;
31906;SDS011;18455;50.858;13.662;2023-11-19T18:25:18;9.97;;;3.27;;
31906;SDS011;18455;50.858;13.662;2023-11-19T18:30:18;10.73;;;2.60;;
31906;SDS011;18455;50.858;13.662;2023-11-19T18:35:19;10.00;;;2.27;;
31906;SDS011;18455;50.858;13.662;2023-11-19T18:40:23;8.43;;;2.50;;
31906;SDS011;18455;50.858;13.662;2023-11-19T18:45:24;11.70;;;2.40;;
31906;SDS011;18455;50.858;13.662;2023-11-19T18:50:25;10.23;;;2.43;;
31906;SDS011;18455;50.858;13.662;2023-11-19T18:55:26;10.17;;;2.57;;
31906;SDS011;18455;50.858;13.662;2023-11-19T19:00:26;11.37;;;2.90;;
31906;SDS011;18455;50.858;13.662;2023-11-19T19:05:26;8.57;;;2.27;;
31906;SDS011;18455;50.858;13.662;2023-11-19T19:10:27;12.00;;;2.60;;
31906;SDS011;18455;50.858;13.662;2023-11-19T19:15:27;14.13;;;3.10;;
31906;SDS011;18455;50.858;13.662;2023-11-19T19:20:28;10.37;;;2.40;;
31906;SDS011;18455;50.858;13.662;2023-11-19T19:25:29;13.27;;;2.43;;
31906;SDS011;18455;50.858;13.662;2023-11-19T19:30:29;12.97;;;2.67;;
31906;SDS011;18455;50.858;13.662;2023-11-19T19:35:29;14.60;;;3.37;;
31906;SDS011;18455;50.858;13.662;2023-11-19T19:40:31;9.43;;;3.30;;
31906;SDS011;18455;50.858;13.662;2023-11-19T19:45:31;13.73;;;3.27;;
31906;SDS011;18455;50.858;13.662;2023-11-19T19:50:31;15.13;;;3.83;;
31906;SDS011;18455;50.858;13.662;2023-11-19T19:55:32;14.10;;;2.83;;
31906;SDS011;18455;50.858;13.662;2023-11-19T20:00:32;17.10;;;2.97;;
31906;SDS011;18455;50.858;13.662;2023-11-19T20:05:33;9.83;;;2.20;;
31906;SDS011;18455;50.858;13.662;2023-11-19T20:10:33;11.03;;;2.60;;
31906;SDS011;18455;50.858;13.662;2023-11-19T20:15:34;9.00;;;2.57;;
31906;SDS011;18455;50.858;13.662;2023-11-19T20:20:34;11.77;;;2.50;;
31906;SDS011;18455;50.858;13.662;2023-11-19T20:25:36;12.83;;;2.17;;
31906;SDS011;18455;50.858;13.662;2023-11-19T20:30:36;14.17;;;2.50;;
31906;SDS011;18455;50.858;13.662;2023-11-19T20:35:37;12.00;;;2.90;;
31906;SDS011;18455;50.858;13.662;2023-11-19T20:40:39;7.13;;;2.17;;
31906;SDS011;18455;50.858;13.662;2023-11-19T20:45:39;10.13;;;2.00;;
31906;SDS011;18455;50.858;13.662;2023-11-19T20:50:39;10.93;;;2.00;;
31906;SDS011;18455;50.858;13.662;2023-11-19T20:55:40;13.83;;;2.40;;
31906;SDS011;18455;50.858;13.662;2023-11-19T21:00:44;8.97;;;1.90;;
31906;SDS011;18455;50.858;13.662;2023-11-19T21:05:46;6.60;;;1.73;;
31906;SDS011;18455;50.858;13.662;2023-11-19T21:10:54;7.10;;;1.73;;
31906;SDS011;18455;50.858;13.662;2023-11-19T21:15:54;7.90;;;1.90;;
31906;SDS011;18455;50.858;13.662;2023-11-19T21:20:54;5.30;;;2.13;;
31906;SDS011;18455;50.858;13.662;2023-11-19T21:25:55;9.37;;;1.87;;
31906;SDS011;18455;50.858;13.662;2023-11-19T21:30:55;10.10;;;1.83;;
31906;SDS011;18455;50.858;13.662;2023-11-19T21:35:57;12.57;;;1.80;;
31906;SDS011;18455;50.858;13.662;2023-11-19T21:40:59;11.93;;;2.13;;
31906;SDS011;18455;50.858;13.662;2023-11-19T21:45:59;10.27;;;1.90;;
31906;SDS011;18455;50.858;13.662;2023-11-19T21:51:03;7.90;;;2.13;;
31906;SDS011;18455;50.858;13.662;2023-11-19T21:56:04;9.07;;;2.00;;
31906;SDS011;18455;50.858;13.662;2023-11-19T22:01:05;8.77;;;2.17;;
31906;SDS011;18455;50.858;13.662;2023-11-19T22:06:05;9.40;;;2.20;;
31906;SDS011;18455;50.858;13.662;2023-11-19T22:11:05;9.80;;;2.10;;
31906;SDS011;18455;50.858;13.662;2023-11-19T22:16:06;11.33;;;2.10;;
31906;SDS011;18455;50.858;13.662;2023-11-19T22:21:07;12.00;;;2.27;;
31906;SDS011;18455;50.858;13.662;2023-11-19T22:26:07;6.83;;;2.10;;
31906;SDS011;18455;50.858;13.662;2023-11-19T22:31:07;8.20;;;1.80;;
31906;SDS011;18455;50.858;13.662;2023-11-19T22:36:08;13.13;;;2.30;;
31906;SDS011;18455;50.858;13.662;2023-11-19T22:41:10;12.80;;;1.87;;
31906;SDS011;18455;50.858;13.662;2023-11-19T22:46:10;5.80;;;1.80;;
31906;SDS011;18455;50.858;13.662;2023-11-19T22:51:12;8.30;;;2.33;;
31906;SDS011;18455;50.858;13.662;2023-11-19T22:56:14;10.47;;;2.10;;
31906;SDS011;18455;50.858;13.662;2023-11-19T23:01:19;15.20;;;3.43;;
31906;SDS011;18455;50.858;13.662;2023-11-19T23:06:19;16.97;;;2.57;;
31906;SDS011;18455;50.858;13.662;2023-11-19T23:11:20;6.60;;;2.10;;
31906;SDS011;18455;50.858;13.662;2023-11-19T23:16:20;9.53;;;1.70;;
31906;SDS011;18455;50.858;13.662;2023-11-19T23:21:23;8.27;;;1.97;;
31906;SDS011;18455;50.858;13.662;2023-11-19T23:26:23;11.70;;;2.30;;
31906;SDS011;18455;50.858;13.662;2023-11-19T23:31:23;11.43;;;2.13;;
31906;SDS011;18455;50.858;13.662;2023-11-19T23:36:23;16.57;;;2.30;;
31906;SDS011;18455;50.858;13.662;2023-11-19T23:41:24;6.47;;;1.80;;
31906;SDS011;18455;50.858;13.662;2023-11-19T23:46:24;14.10;;;2.40;;
31906;SDS011;18455;50.858;13.662;2023-11-19T23:51:24;5.00;;;1.70;;
31906;SDS011;18455;50.858;13.662;2023-11-19T23:56:24;10.33;;;2.03;;
